createdAt,value
2023-03-12T00:01:30.298Z,97506.38
2023-03-12T00:04:03.212Z,97499.54
2023-03-12T00:06:35.136Z,97495.84
2023-03-12T00:09:07.754Z,97484.45
2023-03-12T00:11:40.352Z,97481.95
2023-03-12T00:14:12.434Z,97473.14
2023-03-12T00:16:44.683Z,97467.88
2023-03-12T00:19:16.748Z,97452.14
2023-03-12T00:21:49.000Z,97465.65
2023-03-12T00:24:21.251Z,97457.88
2023-03-12T00:26:53.142Z,97450.81
2023-03-12T00:29:25.162Z,97440.27
2023-03-12T00:31:57.482Z,97440.72
2023-03-12T00:34:29.578Z,97433.78
2023-03-12T00:37:02.221Z,97435.44
2023-03-12T00:39:35.222Z,97412.73
2023-03-12T00:42:07.576Z,97415.86
2023-03-12T00:44:40.180Z,97412.90
2023-03-12T00:47:12.397Z,97399.09
2023-03-12T00:49:44.624Z,97397.96
2023-03-12T00:52:17.119Z,97388.52
2023-03-12T00:54:49.466Z,97382.40
2023-03-12T00:57:21.677Z,97383.97
2023-03-12T00:59:53.748Z,97369.16
2023-03-12T01:02:25.672Z,97368.97
2023-03-12T01:04:58.210Z,97369.58
2023-03-12T01:07:30.381Z,97359.30
2023-03-12T01:10:02.854Z,97349.36
2023-03-12T01:12:34.742Z,97347.52
2023-03-12T01:15:07.585Z,97344.08
2023-03-12T01:17:40.342Z,97337.05
2023-03-12T01:20:12.926Z,97331.63
2023-03-12T01:22:44.826Z,97330.72
2023-03-12T01:25:16.990Z,97332.48
2023-03-12T01:27:48.850Z,97318.88
2023-03-12T01:30:21.781Z,97317.03
2023-03-12T01:32:53.989Z,97305.52
2023-03-12T01:35:26.812Z,97295.95
2023-03-12T01:37:59.056Z,97306.75
2023-03-12T01:40:32.391Z,97297.92
2023-03-12T01:43:31.741Z,97299.28
2023-03-12T01:46:24.437Z,97294.94
2023-03-12T01:49:04.099Z,97285.36
2023-03-12T01:51:47.556Z,97282.66
2023-03-12T01:54:25.659Z,97292.01
2023-03-12T01:56:58.666Z,97276.03
2023-03-12T01:59:39.170Z,97272.59
2023-03-12T02:02:11.663Z,97259.31
2023-03-12T02:04:46.936Z,97261.81
2023-03-12T02:07:19.991Z,97259.72
2023-03-12T02:09:52.199Z,97256.08
2023-03-12T02:12:24.582Z,97245.48
2023-03-12T02:14:56.598Z,97248.69
2023-03-12T02:17:28.756Z,97242.55
2023-03-12T02:20:24.410Z,97243.30
2023-03-12T02:23:12.912Z,97229.26
2023-03-12T02:25:48.118Z,97230.60
2023-03-12T02:28:23.797Z,97224.46
2023-03-12T02:30:58.737Z,97222.60
2023-03-12T02:33:30.917Z,97214.36
2023-03-12T02:36:03.023Z,97214.47
2023-03-12T02:38:46.980Z,97206.47
2023-03-12T02:41:37.305Z,97204.47
2023-03-12T02:44:12.397Z,97195.76
2023-03-12T02:46:47.220Z,97191.87
2023-03-12T02:49:21.582Z,97183.37
2023-03-12T02:51:54.061Z,97172.87
2023-03-12T02:54:26.763Z,97175.86
2023-03-12T02:56:59.278Z,97167.11
2023-03-12T02:59:32.277Z,97162.65
2023-03-12T03:02:05.199Z,97160.86
2023-03-12T03:04:37.256Z,97155.12
2023-03-12T03:07:09.196Z,97158.64
2023-03-12T03:09:41.530Z,97137.04
2023-03-12T03:12:13.573Z,97137.74
2023-03-12T03:14:46.394Z,97138.48
2023-03-12T03:17:18.403Z,97127.13
2023-03-12T03:19:50.519Z,97125.38
2023-03-12T03:22:24.598Z,97127.83
2023-03-12T03:24:56.846Z,97126.91
2023-03-12T03:27:28.903Z,97121.58
2023-03-12T03:30:02.254Z,97123.95
2023-03-12T03:32:35.825Z,97098.91
2023-03-12T03:35:08.335Z,97107.41
2023-03-12T03:37:40.311Z,97108.14
2023-03-12T03:40:13.692Z,97106.38
2023-03-12T03:42:45.906Z,97097.53
2023-03-12T03:45:19.758Z,97092.22
2023-03-12T03:47:52.334Z,97091.86
2023-03-12T03:50:25.853Z,97083.10
2023-03-12T03:52:58.118Z,97069.88
2023-03-12T03:55:31.259Z,97064.57
2023-03-12T03:58:03.434Z,97067.17
2023-03-12T04:00:35.810Z,97066.00
2023-03-12T04:03:08.309Z,97054.53
2023-03-12T04:05:40.817Z,97059.39
2023-03-12T04:08:14.510Z,97050.64
2023-03-12T04:10:47.005Z,97044.37
2023-03-12T04:13:19.328Z,97033.75
2023-03-12T04:15:53.683Z,97030.42
2023-03-12T04:18:26.020Z,97025.22
2023-03-12T04:20:58.998Z,97024.99
2023-03-12T04:23:31.661Z,97015.28
2023-03-12T04:26:05.210Z,97016.59
2023-03-12T04:28:38.621Z,97013.64
2023-03-12T04:31:13.461Z,97011.27
2023-03-12T04:33:50.320Z,96998.99
2023-03-12T04:36:23.748Z,96997.20
2023-03-12T04:38:57.901Z,96991.53
2023-03-12T04:41:36.007Z,96979.48
2023-03-12T04:44:12.572Z,96992.34
2023-03-12T04:46:43.938Z,96988.82
2023-03-12T04:49:17.483Z,96987.36
2023-03-12T04:51:50.318Z,96984.77
2023-03-12T04:54:23.847Z,96980.41
2023-03-12T04:56:56.400Z,96978.64
2023-03-12T04:59:28.291Z,96978.27
2023-03-12T05:02:00.637Z,96972.25
2023-03-12T05:04:33.919Z,96975.42
2023-03-12T05:07:06.209Z,96964.17
2023-03-12T05:09:38.260Z,96965.59
2023-03-12T05:12:11.000Z,96959.31
2023-03-12T05:14:43.261Z,96958.50
2023-03-12T05:17:16.036Z,96961.68
2023-03-12T05:19:48.554Z,96940.05
2023-03-12T05:22:21.014Z,96940.62
2023-03-12T05:24:53.493Z,96934.25
2023-03-12T05:27:26.381Z,96925.25
2023-03-12T05:29:59.357Z,96923.22
2023-03-12T05:32:32.040Z,96929.83
2023-03-12T05:35:06.121Z,96933.16
2023-03-12T05:37:39.013Z,96922.47
2023-03-12T05:40:13.236Z,96914.98
2023-03-12T05:42:45.496Z,96925.03
2023-03-12T05:45:19.355Z,96914.50
2023-03-12T05:47:52.644Z,96910.13
2023-03-12T05:50:26.350Z,96906.33
2023-03-12T05:52:58.677Z,96907.02
2023-03-12T05:55:31.484Z,96905.92
2023-03-12T05:58:05.197Z,96908.41
2023-03-12T06:00:38.500Z,96907.45
2023-03-12T06:03:12.595Z,96894.31
2023-03-12T06:05:47.681Z,96886.81
2023-03-12T06:08:19.783Z,96891.53
2023-03-12T06:10:54.905Z,96889.61
2023-03-12T06:13:28.637Z,96884.15
2023-03-12T06:16:07.520Z,96894.33
2023-03-12T06:18:40.392Z,96882.94
2023-03-12T06:21:15.968Z,96886.11
2023-03-12T06:23:50.214Z,96878.16
2023-03-12T06:26:25.493Z,96878.72
2023-03-12T06:28:58.010Z,96876.30
2023-03-12T06:31:30.251Z,96881.80
2023-03-12T06:34:02.347Z,96872.30
2023-03-12T06:36:34.752Z,96874.78
2023-03-12T06:39:10.009Z,96874.41
2023-03-12T06:41:42.411Z,96869.88
2023-03-12T06:44:14.299Z,96876.61
2023-03-12T06:46:46.508Z,96874.00
2023-03-12T06:49:18.701Z,96864.28
2023-03-12T06:51:50.989Z,96861.68
2023-03-12T06:54:23.789Z,96864.84
2023-03-12T06:56:56.461Z,96853.61
2023-03-12T06:59:29.360Z,96856.09
2023-03-12T07:02:01.747Z,96849.78
2023-03-12T07:04:33.986Z,96832.22
2023-03-12T07:07:08.727Z,96847.60
2023-03-12T07:09:40.221Z,96833.73
2023-03-12T07:12:11.873Z,96841.89
2023-03-12T07:14:44.204Z,96850.51
2023-03-12T07:17:16.449Z,96832.38
2023-03-12T07:19:49.839Z,96828.94
2023-03-12T07:22:22.173Z,96826.20
2023-03-12T07:24:54.136Z,96817.45
2023-03-12T07:27:26.421Z,96809.47
2023-03-12T07:29:58.899Z,96802.48
2023-03-12T07:32:33.690Z,96812.52
2023-03-12T07:35:06.926Z,96791.66
2023-03-12T07:37:39.944Z,96802.64
2023-03-12T07:40:12.893Z,96793.59
2023-03-12T07:42:45.753Z,96796.45
2023-03-12T07:45:17.916Z,96784.13
2023-03-12T07:47:50.621Z,96788.38
2023-03-12T07:50:22.797Z,96780.42
2023-03-12T07:52:55.206Z,96774.37
2023-03-12T07:55:28.093Z,96770.80
2023-03-12T07:58:00.457Z,96780.16
2023-03-12T08:00:33.265Z,96765.47
2023-03-12T08:03:05.903Z,96766.05
2023-03-12T08:05:38.167Z,96762.05
2023-03-12T08:08:10.564Z,96761.11
2023-03-12T08:10:42.633Z,96753.56
2023-03-12T08:13:14.825Z,96755.06
2023-03-12T08:15:47.302Z,96742.83
2023-03-12T08:18:20.785Z,96751.36
2023-03-12T08:20:54.972Z,96738.17
2023-03-12T08:23:27.412Z,96738.17
2023-03-12T08:26:00.870Z,96741.59
2023-03-12T08:28:32.882Z,96746.97
2023-03-12T08:31:05.398Z,96731.45
2023-03-12T08:33:39.405Z,96735.56
2023-03-12T08:36:11.962Z,96723.75
2023-03-12T08:38:44.099Z,96712.34
2023-03-12T08:41:16.223Z,96715.66
2023-03-12T08:43:48.409Z,96710.00
2023-03-12T08:46:20.636Z,96698.06
2023-03-12T08:48:53.216Z,96686.37
2023-03-12T08:51:25.175Z,96685.00
2023-03-12T08:53:57.057Z,96676.87
2023-03-12T08:56:29.277Z,96676.87
2023-03-12T08:59:01.485Z,96670.01
2023-03-12T09:01:34.357Z,96667.12
2023-03-12T09:04:06.845Z,96665.19
2023-03-12T09:06:39.336Z,96654.47
2023-03-12T09:09:11.586Z,96660.08
2023-03-12T09:11:44.172Z,96659.95
2023-03-12T09:14:57.514Z,96650.61
2023-03-12T09:16:50.253Z,96643.89
2023-03-12T09:19:22.595Z,96639.20
2023-03-12T09:21:54.692Z,96636.17
2023-03-12T09:24:27.113Z,96636.84
2023-03-12T09:26:59.718Z,96624.06
2023-03-12T09:29:33.788Z,96635.31
2023-03-12T09:32:06.244Z,96634.78
2023-03-12T09:34:38.342Z,96631.47
2023-03-12T09:37:10.261Z,96615.67
2023-03-12T09:39:42.493Z,96618.00
2023-03-12T09:42:18.322Z,96612.78
2023-03-12T09:44:52.002Z,96596.00
2023-03-12T09:47:36.113Z,96586.38
2023-03-12T09:50:11.125Z,96583.32
2023-03-12T09:52:46.228Z,96574.69
2023-03-12T09:55:21.671Z,96583.32
2023-03-12T09:57:55.781Z,96576.46
2023-03-12T10:00:33.750Z,96575.94
2023-03-12T10:03:17.723Z,96568.24
2023-03-12T10:05:55.675Z,96561.38
2023-03-12T10:08:42.662Z,96556.55
2023-03-12T10:11:33.108Z,96544.59
2023-03-12T10:14:23.792Z,96539.38
2023-03-12T10:17:20.203Z,96536.59
2023-03-12T10:20:00.928Z,96528.75
2023-03-12T10:22:39.386Z,96527.81
2023-03-12T10:25:43.113Z,96519.28
2023-03-12T10:28:24.017Z,96511.30
2023-03-12T10:30:59.286Z,96509.39
2023-03-12T10:33:46.198Z,96516.53
2023-03-12T10:36:21.757Z,96501.09
2023-03-12T10:38:53.883Z,96494.75
2023-03-12T10:41:28.879Z,96487.14
2023-03-12T10:44:06.886Z,96486.03
2023-03-12T10:46:42.106Z,96485.88
2023-03-12T10:49:26.368Z,96475.75
2023-03-12T10:52:05.254Z,96485.08
2023-03-12T10:54:41.093Z,96476.78
2023-03-12T10:57:15.577Z,96469.63
2023-03-12T10:59:51.916Z,96475.98
2023-03-12T11:02:43.125Z,96470.75
2023-03-12T11:05:32.966Z,96468.80
2023-03-12T11:08:07.622Z,96464.55
2023-03-12T11:10:48.097Z,96465.38
2023-03-12T11:13:32.033Z,96455.88
2023-03-12T11:16:19.064Z,96452.31
2023-03-12T11:19:00.973Z,96448.73
2023-03-12T11:21:40.356Z,96442.41
2023-03-12T11:24:15.035Z,96448.69
2023-03-12T11:26:52.942Z,96446.88
2023-03-12T11:29:35.429Z,96450.33
2023-03-12T11:32:37.608Z,96437.11
2023-03-12T11:35:14.678Z,96435.98
2023-03-12T11:38:04.719Z,96434.03
2023-03-12T11:40:45.418Z,96433.23
2023-03-12T11:43:40.001Z,96464.52
2023-03-12T11:46:24.453Z,96468.43
2023-03-12T11:49:28.028Z,96500.20
2023-03-12T11:52:22.301Z,96524.30
2023-03-12T11:55:00.158Z,96527.12
2023-03-12T11:57:47.849Z,96530.33
2023-03-12T12:00:22.469Z,96536.38
2023-03-12T12:02:57.784Z,96546.24
2023-03-12T12:05:35.186Z,96557.02
2023-03-12T12:08:35.202Z,96579.41
2023-03-12T12:11:19.506Z,96580.73
2023-03-12T12:14:18.110Z,96596.72
2023-03-12T12:17:20.452Z,96598.84
2023-03-12T12:20:00.890Z,96614.28
2023-03-12T12:22:52.352Z,96620.23
2023-03-12T12:25:36.632Z,96628.88
2023-03-12T12:28:12.371Z,96645.88
2023-03-12T12:30:56.487Z,96656.64
2023-03-12T12:33:46.386Z,96652.88
2023-03-12T12:36:19.886Z,96657.72
2023-03-12T12:39:13.295Z,96666.77
2023-03-12T12:41:51.564Z,96671.59
2023-03-12T12:44:26.991Z,96684.12
2023-03-12T12:47:02.579Z,96686.57
2023-03-12T12:49:49.575Z,96690.30
2023-03-12T12:52:23.510Z,96703.47
2023-03-12T12:55:13.502Z,96712.83
2023-03-12T12:57:57.205Z,96703.05
2023-03-12T13:00:41.492Z,96709.99
2023-03-12T13:03:15.624Z,96706.91
2023-03-12T13:05:59.689Z,96723.02
2023-03-12T13:08:37.586Z,96724.47
2023-03-12T13:11:30.358Z,96730.77
2023-03-12T13:14:08.502Z,96748.80
2023-03-12T13:16:45.822Z,96766.09
2023-03-12T13:19:21.047Z,96791.75
2023-03-12T13:22:08.151Z,96788.42
2023-03-12T13:24:50.443Z,96798.48
2023-03-12T13:27:27.941Z,96814.69
2023-03-12T13:30:02.035Z,96838.47
2023-03-12T13:32:39.972Z,96811.58
2023-03-12T13:35:21.220Z,96829.30
2023-03-12T13:37:56.548Z,96837.36
2023-03-12T13:40:34.689Z,96843.00
2023-03-12T13:43:18.229Z,96839.80
2023-03-12T13:46:11.868Z,96834.01
2023-03-12T13:48:49.046Z,96846.67
2023-03-12T13:51:24.793Z,96871.64
2023-03-12T13:54:04.698Z,96879.52
2023-03-12T13:56:38.382Z,96899.25
2023-03-12T13:59:13.380Z,96899.89
2023-03-12T14:01:51.157Z,96885.20
2023-03-12T14:04:35.369Z,96902.21
2023-03-12T14:07:31.402Z,96902.92
2023-03-12T14:10:08.831Z,96909.69
2023-03-12T14:12:59.758Z,96890.32
2023-03-12T14:15:51.433Z,96920.69
2023-03-12T14:18:26.412Z,96911.61
2023-03-12T14:21:00.784Z,96922.69
2023-03-12T14:23:39.349Z,96924.73
2023-03-12T14:26:18.861Z,96924.10
2023-03-12T14:28:53.799Z,96938.11
2023-03-12T14:31:28.190Z,96951.09
2023-03-12T14:34:03.513Z,96958.03
2023-03-12T14:36:47.358Z,96955.44
2023-03-12T14:39:40.047Z,96960.89
2023-03-12T14:42:13.862Z,96969.83
2023-03-12T14:44:49.057Z,96969.45
2023-03-12T14:47:21.266Z,96977.02
2023-03-12T14:49:54.658Z,96981.89
2023-03-12T14:52:30.408Z,96983.63
2023-03-12T14:55:05.491Z,96994.41
2023-03-12T14:57:37.721Z,97019.33
2023-03-12T15:00:13.514Z,97041.80
2023-03-12T15:02:45.898Z,97032.55
2023-03-12T15:05:20.386Z,97062.67
2023-03-12T15:07:54.874Z,97065.30
2023-03-12T15:10:29.386Z,97079.20
2023-03-12T15:13:04.282Z,97105.48
2023-03-12T15:15:39.781Z,97111.99
2023-03-12T15:18:23.690Z,97110.14
2023-03-12T15:20:57.583Z,97115.08
2023-03-12T15:23:32.845Z,97123.81
2023-03-12T15:26:19.920Z,97112.15
2023-03-12T15:29:08.306Z,97120.20
2023-03-12T15:31:49.099Z,97149.17
2023-03-12T15:34:38.795Z,97151.78
2023-03-12T15:37:41.436Z,97192.40
2023-03-12T15:40:28.540Z,97203.00
2023-03-12T15:43:06.122Z,97211.20
2023-03-12T15:45:39.877Z,97203.65
2023-03-12T15:48:23.439Z,97207.41
2023-03-12T15:50:55.839Z,97211.64
2023-03-12T15:53:31.499Z,97255.38
2023-03-12T15:56:06.493Z,97252.66
2023-03-12T15:58:41.543Z,97278.09
2023-03-12T16:01:15.902Z,97280.75
2023-03-12T16:03:48.417Z,97279.16
2023-03-12T16:06:25.873Z,97287.55
2023-03-12T16:09:04.734Z,97283.16
2023-03-12T16:11:38.950Z,97306.47
2023-03-12T16:14:25.842Z,97326.92
2023-03-12T16:16:58.653Z,97353.17
2023-03-12T16:19:34.904Z,97324.18
2023-03-12T16:22:07.276Z,97348.70
2023-03-12T16:24:39.661Z,97341.73
2023-03-12T16:27:18.042Z,97358.52
2023-03-12T16:29:49.409Z,97353.92
2023-03-12T16:32:22.536Z,97360.53
2023-03-12T16:34:55.653Z,97396.56
2023-03-12T16:37:32.976Z,97409.31
2023-03-12T16:40:06.399Z,97426.55
2023-03-12T16:42:39.705Z,97407.55
2023-03-12T16:45:15.417Z,97444.86
2023-03-12T16:47:49.024Z,97454.38
2023-03-12T16:50:23.338Z,97442.84
2023-03-12T16:52:56.667Z,97452.16
2023-03-12T16:55:31.803Z,97468.48
2023-03-12T16:58:05.574Z,97469.80
2023-03-12T17:00:37.542Z,97479.53
2023-03-12T17:03:12.694Z,97486.46
2023-03-12T17:05:45.564Z,97478.55
2023-03-12T17:08:17.615Z,97490.20
2023-03-12T17:10:50.065Z,97508.84
2023-03-12T17:13:26.073Z,97513.02
2023-03-12T17:15:58.920Z,97533.10
2023-03-12T17:18:31.605Z,97541.16
2023-03-12T17:21:04.118Z,97558.20
2023-03-12T17:23:36.699Z,97553.45
2023-03-12T17:26:09.780Z,97560.32
2023-03-12T17:28:42.258Z,97579.25
2023-03-12T17:31:14.558Z,97572.66
2023-03-12T17:33:47.356Z,97574.03
2023-03-12T17:36:19.646Z,97576.04
2023-03-12T17:38:51.828Z,97584.70
2023-03-12T17:41:26.773Z,97585.20
2023-03-12T17:43:59.461Z,97596.62
2023-03-12T17:46:34.771Z,97598.53
2023-03-12T17:49:06.936Z,97616.61
2023-03-12T17:51:39.166Z,97635.93
2023-03-12T17:54:11.822Z,97638.33
2023-03-12T17:56:43.858Z,97652.66
2023-03-12T17:59:15.919Z,97666.48
2023-03-12T18:01:48.225Z,97656.70
2023-03-12T18:04:20.651Z,97649.38
2023-03-12T18:06:52.727Z,97669.39
2023-03-12T18:09:24.997Z,97667.98
2023-03-12T18:11:57.103Z,97659.33
2023-03-12T18:14:29.213Z,97656.05
2023-03-12T18:17:01.357Z,97677.55
2023-03-12T18:19:35.279Z,97674.27
2023-03-12T18:22:07.360Z,97681.94
2023-03-12T18:24:39.507Z,97691.37
2023-03-12T18:27:11.895Z,97697.44
2023-03-12T18:29:44.290Z,97703.93
2023-03-12T18:32:16.470Z,97716.42
2023-03-12T18:34:48.567Z,97729.78
2023-03-12T18:37:21.611Z,97746.29
2023-03-12T18:39:53.803Z,97737.26
2023-03-12T18:42:25.902Z,97724.63
2023-03-12T18:44:57.906Z,97743.77
2023-03-12T18:47:29.705Z,97750.73
2023-03-12T18:50:03.620Z,97759.09
2023-03-12T18:52:36.220Z,97769.06
2023-03-12T18:55:08.529Z,97776.11
2023-03-12T18:57:47.711Z,97785.55
2023-03-12T19:00:20.417Z,97812.34
2023-03-12T19:02:52.549Z,97798.66
2023-03-12T19:05:24.679Z,97810.01
2023-03-12T19:07:56.715Z,97813.64
2023-03-12T19:10:28.695Z,97827.80
2023-03-12T19:13:00.785Z,97845.89
2023-03-12T19:15:33.123Z,97837.24
2023-03-12T19:18:05.229Z,97858.13
2023-03-12T19:20:37.155Z,97886.55
2023-03-12T19:23:09.083Z,97870.14
2023-03-12T19:25:41.380Z,97874.98
2023-03-12T19:28:13.753Z,97886.08
2023-03-12T19:30:45.948Z,97886.13
2023-03-12T19:33:18.204Z,97892.50
2023-03-12T19:35:52.048Z,97897.11
2023-03-12T19:38:23.593Z,97911.69
2023-03-12T19:40:57.608Z,97915.69
2023-03-12T19:43:29.845Z,97921.66
2023-03-12T19:46:01.998Z,97932.70
2023-03-12T19:48:34.342Z,97938.56
2023-03-12T19:51:07.886Z,97938.16
2023-03-12T19:53:40.327Z,97952.40
2023-03-12T19:56:12.159Z,97955.06
2023-03-12T19:58:44.169Z,97956.05
2023-03-12T20:01:16.176Z,97965.91
2023-03-12T20:03:48.318Z,97978.97
2023-03-12T20:06:20.614Z,97982.27
2023-03-12T20:08:52.713Z,97995.36
2023-03-12T20:11:24.755Z,97994.66
2023-03-12T20:13:56.533Z,97998.02
2023-03-12T20:16:28.560Z,97998.58
2023-03-12T20:19:00.462Z,97989.97
2023-03-12T20:21:32.655Z,97998.48
2023-03-12T20:24:05.370Z,98007.53
2023-03-12T20:26:41.526Z,98010.77
2023-03-12T20:29:13.667Z,98010.90
2023-03-12T20:31:45.743Z,98016.94
2023-03-12T20:34:18.308Z,98015.30
2023-03-12T20:36:50.484Z,98029.97
2023-03-12T20:39:22.691Z,98035.19
2023-03-12T20:41:54.908Z,98032.55
2023-03-12T20:44:27.568Z,98033.36
2023-03-12T20:47:00.014Z,98044.13
2023-03-12T20:49:32.054Z,98040.91
2023-03-12T20:52:04.414Z,98046.04
2023-03-12T20:54:36.501Z,98049.42
2023-03-12T20:57:08.710Z,98059.50
2023-03-12T20:59:41.315Z,98065.53
2023-03-12T21:02:17.066Z,98065.45
2023-03-12T21:04:49.953Z,98074.71
2023-03-12T21:07:22.566Z,98079.11
2023-03-12T21:09:54.671Z,98088.41
2023-03-12T21:12:26.604Z,98085.84
2023-03-12T21:15:00.176Z,98090.94
2023-03-12T21:17:38.269Z,98092.49
2023-03-12T21:20:17.630Z,98102.20
2023-03-12T21:22:49.999Z,98102.63
2023-03-12T21:25:22.241Z,98114.58
2023-03-12T21:27:55.915Z,98117.30
2023-03-12T21:30:27.963Z,98115.81
2023-03-12T21:33:00.336Z,98132.48
2023-03-12T21:35:32.524Z,98133.75
2023-03-12T21:38:04.618Z,98133.87
2023-03-12T21:40:37.360Z,98139.45
2023-03-12T21:43:09.263Z,98137.80
2023-03-12T21:45:42.274Z,98143.34
2023-03-12T21:48:14.786Z,98148.30
2023-03-12T21:50:46.708Z,98147.72
2023-03-12T21:53:23.746Z,98150.43
2023-03-12T21:56:02.322Z,98154.88
2023-03-12T21:58:37.891Z,98168.14
2023-03-12T22:01:15.271Z,98175.56
2023-03-12T22:03:48.052Z,98184.44
2023-03-12T22:06:20.411Z,98185.33
2023-03-12T22:08:52.538Z,98197.91
2023-03-12T22:11:24.776Z,98204.97
2023-03-12T22:13:57.881Z,98211.03
2023-03-12T22:16:30.251Z,98202.37
2023-03-12T22:19:02.468Z,98214.44
2023-03-12T22:21:34.790Z,98207.27
2023-03-12T22:24:07.104Z,98223.82
2023-03-12T22:26:39.312Z,98236.00
2023-03-12T22:29:11.562Z,98235.17
2023-03-12T22:31:43.481Z,98246.98
2023-03-12T22:34:15.523Z,98245.44
2023-03-12T22:36:47.588Z,98244.75
2023-03-12T22:39:19.739Z,98251.05
2023-03-12T22:41:52.392Z,98256.09
2023-03-12T22:44:24.374Z,98257.20
2023-03-12T22:46:56.433Z,98263.15
2023-03-12T22:49:28.388Z,98279.33
2023-03-12T22:52:00.926Z,98277.53
2023-03-12T22:54:33.574Z,98274.13
2023-03-12T22:57:05.553Z,98271.66
2023-03-12T22:59:38.425Z,98284.99
2023-03-12T23:02:10.373Z,98298.09
2023-03-12T23:04:42.676Z,98295.27
2023-03-12T23:07:17.449Z,98303.88
2023-03-12T23:09:49.798Z,98312.57
2023-03-12T23:12:21.966Z,98310.80
2023-03-12T23:14:54.690Z,98309.71
2023-03-12T23:17:26.626Z,98313.76
2023-03-12T23:19:58.603Z,98319.84
2023-03-12T23:22:30.540Z,98333.52
2023-03-12T23:25:02.533Z,98329.98
2023-03-12T23:27:35.054Z,98329.92
2023-03-12T23:30:08.197Z,98331.60
2023-03-12T23:32:40.259Z,98333.05
2023-03-12T23:35:12.549Z,98348.19
2023-03-12T23:37:44.950Z,98349.83
2023-03-12T23:40:17.574Z,98336.41
2023-03-12T23:42:49.816Z,98354.28
2023-03-12T23:45:22.156Z,98356.27
2023-03-12T23:47:54.404Z,98358.80
2023-03-12T23:50:26.419Z,98357.78
2023-03-12T23:52:58.671Z,98361.66
2023-03-12T23:55:31.024Z,98354.94
2023-03-12T23:58:04.848Z,98370.05
